createdAt,value
2023-04-21T00:01:13.059Z,97420.31
2023-04-21T00:03:42.130Z,97415.16
2023-04-21T00:06:10.664Z,97411.69
2023-04-21T00:08:40.546Z,97406.56
2023-04-21T00:11:09.066Z,97403.09
2023-04-21T00:13:37.940Z,97410.78
2023-04-21T00:16:08.605Z,97407.28
2023-04-21T00:18:37.125Z,97409.81
2023-04-21T00:21:05.810Z,97408.13
2023-04-21T00:23:34.079Z,97407.25
2023-04-21T00:26:03.001Z,97408.13
2023-04-21T00:28:31.489Z,97398.56
2023-04-21T00:31:00.416Z,97406.28
2023-04-21T00:33:31.175Z,97405.50
2023-04-21T00:36:00.276Z,97396.91
2023-04-21T00:38:29.167Z,97396.09
2023-04-21T00:40:57.600Z,97395.38
2023-04-21T00:43:26.575Z,97385.72
2023-04-21T00:45:56.215Z,97394.50
2023-04-21T00:48:24.530Z,97401.59
2023-04-21T00:50:54.543Z,97389.16
2023-04-21T00:53:23.104Z,97389.16
2023-04-21T00:55:52.978Z,97382.41
2023-04-21T00:58:21.391Z,97388.19
2023-04-21T01:00:50.064Z,97387.41
2023-04-21T01:03:18.704Z,97387.47
2023-04-21T01:05:47.321Z,97385.66
2023-04-21T01:08:17.327Z,97388.25
2023-04-21T01:10:45.711Z,97378.88
2023-04-21T01:13:14.412Z,97385.75
2023-04-21T01:15:42.714Z,97404.03
2023-04-21T01:18:11.126Z,97389.84
2023-04-21T01:20:39.623Z,97398.22
2023-04-21T01:23:09.381Z,97399.91
2023-04-21T01:25:37.809Z,97411.13
2023-04-21T01:28:06.389Z,97406.19
2023-04-21T01:30:34.830Z,97401.66
2023-04-21T01:33:03.285Z,97399.28
2023-04-21T01:35:31.953Z,97386.47
2023-04-21T01:38:00.529Z,97386.50
2023-04-21T01:40:30.513Z,97383.97
2023-04-21T01:42:59.524Z,97383.03
2023-04-21T01:45:28.053Z,97383.94
2023-04-21T01:47:56.368Z,97383.09
2023-04-21T01:50:24.741Z,97386.44
2023-04-21T01:52:53.131Z,97385.69
2023-04-21T01:55:25.659Z,97388.34
2023-04-21T01:57:57.755Z,97384.09
2023-04-21T02:00:26.676Z,97382.31
2023-04-21T02:02:55.155Z,97373.66
2023-04-21T02:05:23.566Z,97374.47
2023-04-21T02:07:51.981Z,97381.25
2023-04-21T02:10:20.378Z,97389.16
2023-04-21T02:12:49.206Z,97375.47
2023-04-21T02:15:19.091Z,97378.94
2023-04-21T02:17:47.506Z,97377.28
2023-04-21T02:20:15.952Z,97380.69
2023-04-21T02:22:45.432Z,97377.34
2023-04-21T02:25:13.758Z,97375.47
2023-04-21T02:27:42.132Z,97380.56
2023-04-21T02:30:11.255Z,97379.91
2023-04-21T02:32:41.107Z,97379.03
2023-04-21T02:35:10.318Z,97379.91
2023-04-21T02:37:38.701Z,97383.34
2023-04-21T02:40:08.316Z,97379.75
2023-04-21T02:42:36.630Z,97383.19
2023-04-21T02:45:13.259Z,97384.94
2023-04-21T02:47:52.804Z,97378.00
2023-04-21T02:50:21.509Z,97373.72
2023-04-21T02:52:49.810Z,97373.66
2023-04-21T02:55:18.174Z,97387.44
2023-04-21T02:57:46.457Z,97372.03
2023-04-21T03:00:15.561Z,97374.66
2023-04-21T03:02:45.028Z,97374.66
2023-04-21T03:05:15.073Z,97372.91
2023-04-21T03:07:46.375Z,97376.34
2023-04-21T03:10:14.969Z,97376.25
2023-04-21T03:12:43.372Z,97369.47
2023-04-21T03:15:12.907Z,97364.41
2023-04-21T03:17:41.274Z,97367.69
2023-04-21T03:20:11.108Z,97361.66
2023-04-21T03:22:41.494Z,97371.06
2023-04-21T03:25:10.390Z,97370.94
2023-04-21T03:27:38.945Z,97362.34
2023-04-21T03:30:08.576Z,97363.13
2023-04-21T03:32:36.941Z,97359.72
2023-04-21T03:35:05.559Z,97361.47
2023-04-21T03:37:34.226Z,97363.16
2023-04-21T03:40:06.203Z,97365.59
2023-04-21T03:42:35.272Z,97367.53
2023-04-21T03:45:04.060Z,97371.88
2023-04-21T03:47:34.889Z,97364.09
2023-04-21T03:50:06.003Z,97361.53
2023-04-21T03:52:34.448Z,97368.19
2023-04-21T03:55:05.268Z,97370.06
2023-04-21T03:57:33.648Z,97368.25
2023-04-21T04:00:01.926Z,97372.59
2023-04-21T04:02:30.987Z,97367.50
2023-04-21T04:04:59.432Z,97374.38
2023-04-21T04:07:27.883Z,97372.63
2023-04-21T04:09:56.336Z,97387.91
2023-04-21T04:12:26.313Z,97399.09
2023-04-21T04:14:54.613Z,97397.75
2023-04-21T04:17:22.996Z,97401.88
2023-04-21T04:19:51.323Z,97403.47
2023-04-21T04:22:19.580Z,97410.38
2023-04-21T04:24:48.061Z,97411.78
2023-04-21T04:27:16.802Z,97415.94
2023-04-21T04:29:46.642Z,97420.34
2023-04-21T04:32:15.353Z,97421.41
2023-04-21T04:34:43.651Z,97428.00
2023-04-21T04:37:13.445Z,97427.38
2023-04-21T04:39:41.739Z,97414.03
2023-04-21T04:42:10.222Z,97416.84
2023-04-21T04:44:38.544Z,97416.03
2023-04-21T04:47:08.730Z,97410.03
2023-04-21T04:49:37.189Z,97420.34
2023-04-21T04:52:05.945Z,97417.75
2023-04-21T04:54:34.381Z,97406.53
2023-04-21T04:57:02.654Z,97409.09
2023-04-21T04:59:31.686Z,97402.25
2023-04-21T05:01:59.998Z,97400.50
2023-04-21T05:04:29.889Z,97404.75
2023-04-21T05:06:58.253Z,97407.38
2023-04-21T05:09:26.549Z,97397.03
2023-04-21T05:11:54.847Z,97407.25
2023-04-21T05:14:23.399Z,97400.38
2023-04-21T05:16:51.640Z,97400.19
2023-04-21T05:19:19.941Z,97408.78
2023-04-21T05:21:49.591Z,97404.28
2023-04-21T05:24:23.246Z,97405.13
2023-04-21T05:26:51.531Z,97403.59
2023-04-21T05:29:19.705Z,97412.16
2023-04-21T05:31:48.109Z,97408.78
2023-04-21T05:34:16.424Z,97411.28
2023-04-21T05:36:44.823Z,97411.31
2023-04-21T05:39:14.636Z,97413.78
2023-04-21T05:41:43.459Z,97408.56
2023-04-21T05:44:11.788Z,97409.38
2023-04-21T05:46:40.120Z,97407.38
2023-04-21T05:49:08.372Z,97409.28
2023-04-21T05:51:36.637Z,97418.09
2023-04-21T05:54:05.144Z,97411.13
2023-04-21T05:56:34.914Z,97413.28
2023-04-21T05:59:03.164Z,97408.09
2023-04-21T06:01:31.579Z,97414.28
2023-04-21T06:04:00.030Z,97422.31
2023-04-21T06:06:28.848Z,97425.56
2023-04-21T06:08:57.195Z,97417.84
2023-04-21T06:11:25.522Z,97415.19
2023-04-21T06:13:58.449Z,97415.97
2023-04-21T06:16:27.176Z,97415.78
2023-04-21T06:18:55.666Z,97418.78
2023-04-21T06:21:23.910Z,97416.38
2023-04-21T06:23:53.567Z,97417.63
2023-04-21T06:26:21.959Z,97421.13
2023-04-21T06:28:50.569Z,97421.19
2023-04-21T06:31:21.009Z,97420.75
2023-04-21T06:33:49.270Z,97419.47
2023-04-21T06:36:18.123Z,97417.97
2023-04-21T06:38:46.832Z,97407.72
2023-04-21T06:41:15.134Z,97420.34
2023-04-21T06:43:43.546Z,97410.63
2023-04-21T06:46:12.124Z,97408.47
2023-04-21T06:48:41.775Z,97411.53
2023-04-21T06:51:09.985Z,97404.94
2023-04-21T06:53:38.706Z,97398.59
2023-04-21T06:56:08.519Z,97400.84
2023-04-21T06:58:36.806Z,97404.91
2023-04-21T07:01:05.064Z,97405.97
2023-04-21T07:03:33.502Z,97404.16
2023-04-21T07:06:03.190Z,97408.69
2023-04-21T07:08:31.423Z,97406.28
2023-04-21T07:11:00.140Z,97411.00
2023-04-21T07:13:28.492Z,97406.91
2023-04-21T07:15:56.695Z,97402.00
2023-04-21T07:18:25.105Z,97400.31
2023-04-21T07:20:53.659Z,97405.03
2023-04-21T07:23:24.503Z,97402.47
2023-04-21T07:25:54.716Z,97414.78
2023-04-21T07:28:23.848Z,97411.44
2023-04-21T07:30:53.740Z,97406.00
2023-04-21T07:33:22.112Z,97419.72
2023-04-21T07:35:50.838Z,97419.34
2023-04-21T07:38:19.082Z,97419.13
2023-04-21T07:40:48.881Z,97424.34
2023-04-21T07:43:17.140Z,97411.25
2023-04-21T07:45:45.443Z,97410.50
2023-04-21T07:48:13.961Z,97417.59
2023-04-21T07:50:42.722Z,97413.34
2023-04-21T07:53:12.417Z,97416.75
2023-04-21T07:55:40.744Z,97412.03
2023-04-21T07:58:11.341Z,97420.22
2023-04-21T08:00:39.626Z,97417.13
2023-04-21T08:03:08.177Z,97414.59
2023-04-21T08:05:40.950Z,97421.31
2023-04-21T08:08:09.868Z,97415.44
2023-04-21T08:10:38.128Z,97411.63
2023-04-21T08:13:06.823Z,97415.34
2023-04-21T08:15:36.651Z,97410.66
2023-04-21T08:18:05.134Z,97414.94
2023-04-21T08:23:36.843Z,97415.81
2023-04-21T08:26:35.886Z,97410.31
2023-04-21T08:29:07.498Z,97409.97
2023-04-21T08:31:37.695Z,97402.72
2023-04-21T08:34:07.330Z,97399.06
2023-04-21T08:36:35.744Z,97401.97
2023-04-21T08:39:04.234Z,97399.31
2023-04-21T08:41:34.753Z,97403.19
2023-04-21T08:44:09.930Z,97398.22
2023-04-21T08:46:40.363Z,97396.38
2023-04-21T08:49:10.960Z,97395.91
2023-04-21T08:51:39.302Z,97396.75
2023-04-21T08:54:07.477Z,97398.75
2023-04-21T08:56:40.077Z,97399.59
2023-04-21T08:59:08.676Z,97394.78
2023-04-21T09:02:12.487Z,97396.84
2023-04-21T09:05:00.908Z,97396.41
2023-04-21T09:07:33.367Z,97388.41
2023-04-21T09:10:02.189Z,97381.69
2023-04-21T09:12:31.126Z,97388.44
2023-04-21T09:15:01.083Z,97392.47
2023-04-21T09:17:34.014Z,97379.56
2023-04-21T09:20:15.981Z,97384.31
2023-04-21T09:22:45.185Z,97391.25
2023-04-21T09:25:17.863Z,97392.78
2023-04-21T09:27:47.108Z,97388.28
2023-04-21T09:30:16.595Z,97385.16
2023-04-21T09:32:46.286Z,97382.78
2023-04-21T09:35:14.486Z,97378.38
2023-04-21T09:37:45.004Z,97376.63
2023-04-21T09:40:16.445Z,97372.25
2023-04-21T09:42:45.190Z,97375.34
2023-04-21T09:47:51.488Z,97368.00
2023-04-21T09:50:39.346Z,97368.19
2023-04-21T09:53:12.932Z,97367.09
2023-04-21T09:55:43.491Z,97362.00
2023-04-21T09:58:15.531Z,97357.91
2023-04-21T10:00:44.550Z,97363.81
2023-04-21T10:03:14.506Z,97368.13
2023-04-21T10:05:43.373Z,97361.53
2023-04-21T10:08:12.874Z,97359.25
2023-04-21T10:10:41.318Z,97369.44
2023-04-21T10:13:15.011Z,97361.53
2023-04-21T10:15:43.976Z,97373.84
2023-04-21T10:18:20.084Z,97357.41
2023-04-21T10:20:58.182Z,97355.66
2023-04-21T10:23:36.357Z,97361.94
2023-04-21T10:26:12.132Z,97354.59
2023-04-21T10:28:48.045Z,97343.16
2023-04-21T10:31:21.231Z,97342.78
2023-04-21T10:34:19.511Z,97336.59
2023-04-21T10:37:13.378Z,97345.13
2023-04-21T10:39:53.794Z,97340.91
2023-04-21T10:42:28.413Z,97344.88
2023-04-21T10:45:10.476Z,97341.97
2023-04-21T10:47:49.110Z,97334.84
2023-04-21T10:50:30.724Z,97332.34
2023-04-21T10:53:08.196Z,97327.53
2023-04-21T10:55:36.873Z,97333.16
2023-04-21T10:58:06.555Z,97329.00
2023-04-21T11:00:34.933Z,97329.44
2023-04-21T11:03:04.680Z,97332.22
2023-04-21T11:05:38.536Z,97325.50
2023-04-21T11:08:08.384Z,97326.16
2023-04-21T11:10:53.302Z,97322.81
2023-04-21T11:13:26.104Z,97322.03
2023-04-21T11:15:58.596Z,97321.56
2023-04-21T11:18:41.990Z,97323.25
2023-04-21T11:21:18.395Z,97320.56
2023-04-21T11:23:51.454Z,97320.13
2023-04-21T11:26:21.076Z,97313.53
2023-04-21T11:28:51.514Z,97310.31
2023-04-21T11:31:20.726Z,97308.34
2023-04-21T11:33:49.080Z,97303.47
2023-04-21T11:36:22.824Z,97298.94
2023-04-21T11:38:51.436Z,97296.34
2023-04-21T11:41:22.544Z,97300.53
2023-04-21T11:43:52.441Z,97300.22
2023-04-21T11:46:24.937Z,97299.03
2023-04-21T11:49:12.477Z,97294.03
2023-04-21T11:51:43.132Z,97293.34
2023-04-21T11:54:12.461Z,97289.84
2023-04-21T11:56:42.948Z,97292.28
2023-04-21T11:59:12.027Z,97284.53
2023-04-21T12:01:46.654Z,97298.81
2023-04-21T12:04:16.896Z,97293.28
2023-04-21T12:06:47.900Z,97285.97
2023-04-21T12:09:21.664Z,97294.25
2023-04-21T12:11:51.117Z,97295.09
2023-04-21T12:14:20.484Z,97289.34
2023-04-21T12:16:50.228Z,97288.25
2023-04-21T12:19:25.346Z,97295.13
2023-04-21T12:21:58.461Z,97290.19
2023-04-21T12:24:26.786Z,97289.69
2023-04-21T12:26:55.378Z,97286.22
2023-04-21T12:29:23.902Z,97290.06
2023-04-21T12:31:52.746Z,97290.19
2023-04-21T12:34:21.292Z,97300.91
2023-04-21T12:36:58.116Z,97300.63
2023-04-21T12:39:29.388Z,97300.66
2023-04-21T12:41:57.922Z,97301.50
2023-04-21T12:44:26.572Z,97314.44
2023-04-21T12:46:54.877Z,97321.13
2023-04-21T12:49:24.192Z,97316.41
2023-04-21T12:51:53.401Z,97330.50
2023-04-21T12:54:21.608Z,97338.69
2023-04-21T12:56:51.393Z,97338.53
2023-04-21T12:59:19.700Z,97342.09
2023-04-21T13:01:48.086Z,97338.16
2023-04-21T13:04:17.347Z,97331.03
2023-04-21T13:06:45.988Z,97337.25
2023-04-21T13:09:14.863Z,97344.00
2023-04-21T13:11:43.115Z,97338.88
2023-04-21T13:14:12.744Z,97338.88
2023-04-21T13:16:42.053Z,97326.88
2023-04-21T13:19:10.397Z,97327.44
2023-04-21T13:21:40.312Z,97325.97
2023-04-21T13:24:09.917Z,97322.59
2023-04-21T13:26:41.877Z,97322.97
2023-04-21T13:29:11.324Z,97320.44
2023-04-21T13:31:41.090Z,97324.41
2023-04-21T13:34:09.560Z,97316.28
2023-04-21T13:36:37.879Z,97316.00
2023-04-21T13:39:07.644Z,97302.00
2023-04-21T13:41:37.349Z,97305.25
2023-04-21T13:44:05.800Z,97301.25
2023-04-21T13:46:36.643Z,97307.84
2023-04-21T13:49:07.584Z,97298.47
2023-04-21T13:51:37.263Z,97294.44
2023-04-21T13:54:09.665Z,97296.59
2023-04-21T13:56:38.727Z,97278.91
2023-04-21T13:59:08.564Z,97275.50
2023-04-21T14:01:37.645Z,97266.59
2023-04-21T14:04:07.844Z,97260.00
2023-04-21T14:06:38.094Z,97261.19
2023-04-21T14:09:06.839Z,97254.47
2023-04-21T14:11:36.001Z,97257.00
2023-04-21T14:16:35.661Z,97244.13
2023-04-21T14:19:07.402Z,97252.22
2023-04-21T14:21:35.724Z,97246.44
2023-04-21T14:24:04.248Z,97239.56
2023-04-21T14:26:33.178Z,97231.72
2023-04-21T14:29:04.979Z,97232.09
2023-04-21T14:31:34.734Z,97236.88
2023-04-21T14:34:05.917Z,97231.78
2023-04-21T14:36:47.577Z,97231.16
2023-04-21T14:39:17.445Z,97231.94
2023-04-21T14:41:54.770Z,97231.44
2023-04-21T14:44:28.710Z,97224.94
2023-04-21T14:47:10.400Z,97229.16
2023-04-21T14:49:50.001Z,97226.53
2023-04-21T14:52:28.567Z,97226.41
2023-04-21T14:54:57.602Z,97221.28
2023-04-21T14:57:43.755Z,97218.19
2023-04-21T15:00:48.021Z,97217.72
2023-04-21T15:03:19.302Z,97205.50
2023-04-21T15:05:50.574Z,97212.81
2023-04-21T15:08:21.445Z,97204.72
2023-04-21T15:10:52.709Z,97214.81
2023-04-21T15:13:24.632Z,97213.81
2023-04-21T15:15:54.329Z,97221.13
2023-04-21T15:18:38.273Z,97216.38
2023-04-21T15:21:11.531Z,97206.94
2023-04-21T15:23:42.433Z,97206.09
2023-04-21T15:26:14.050Z,97207.28
2023-04-21T15:28:45.193Z,97212.28
2023-04-21T15:31:13.706Z,97206.66
2023-04-21T15:33:44.105Z,97206.28
2023-04-21T15:36:14.454Z,97201.72
2023-04-21T15:41:57.522Z,97196.09
2023-04-21T15:44:26.387Z,97202.69
2023-04-21T15:47:09.236Z,97192.03
2023-04-21T15:49:41.006Z,97193.59
2023-04-21T15:52:19.463Z,97194.97
2023-04-21T15:54:52.498Z,97188.44
2023-04-21T15:57:33.238Z,97189.28
2023-04-21T16:00:15.009Z,97193.69
2023-04-21T16:02:43.499Z,97190.75
2023-04-21T16:05:13.728Z,97183.34
2023-04-21T16:07:43.522Z,97182.44
2023-04-21T16:10:15.115Z,97185.25
2023-04-21T16:12:49.765Z,97184.94
2023-04-21T16:15:24.452Z,97179.25
2023-04-21T16:17:55.616Z,97174.88
2023-04-21T16:20:24.472Z,97174.84
2023-04-21T16:23:00.803Z,97176.63
2023-04-21T16:25:34.056Z,97171.09
2023-04-21T16:28:02.379Z,97172.97
2023-04-21T16:30:35.139Z,97170.84
2023-04-21T16:33:06.317Z,97168.25
2023-04-21T16:35:34.633Z,97166.81
2023-04-21T16:38:16.361Z,97161.69
2023-04-21T16:40:53.532Z,97159.69
2023-04-21T16:43:23.512Z,97172.00
2023-04-21T16:46:00.610Z,97171.94
2023-04-21T16:48:30.962Z,97167.19
2023-04-21T16:51:28.691Z,97170.47
2023-04-21T16:53:57.700Z,97162.28
2023-04-21T16:56:30.058Z,97166.31
2023-04-21T16:58:58.586Z,97171.84
2023-04-21T17:01:28.694Z,97168.34
2023-04-21T17:03:59.129Z,97171.25
2023-04-21T17:06:27.965Z,97168.81
2023-04-21T17:08:59.869Z,97181.16
2023-04-21T17:11:31.415Z,97173.59
2023-04-21T17:14:01.299Z,97167.44
2023-04-21T17:16:30.265Z,97176.56
2023-04-21T17:19:00.109Z,97179.59
2023-04-21T17:21:29.279Z,97179.41
2023-04-21T17:23:57.693Z,97177.28
2023-04-21T17:26:26.540Z,97171.88
2023-04-21T17:28:57.556Z,97184.22
2023-04-21T17:31:30.394Z,97183.50
2023-04-21T17:33:58.898Z,97187.19
2023-04-21T17:36:29.477Z,97179.63
2023-04-21T17:38:58.423Z,97183.28
2023-04-21T17:41:27.277Z,97187.94
2023-04-21T17:43:57.111Z,97184.13
2023-04-21T17:46:29.060Z,97188.50
2023-04-21T17:48:57.516Z,97182.50
2023-04-21T17:51:26.289Z,97182.81
2023-04-21T17:53:56.046Z,97187.53
2023-04-21T17:56:25.382Z,97195.38
2023-04-21T17:58:56.782Z,97185.78
2023-04-21T18:01:27.387Z,97188.16
2023-04-21T18:04:00.729Z,97197.91
2023-04-21T18:06:31.948Z,97198.50
2023-04-21T18:09:00.418Z,97200.44
2023-04-21T18:11:30.246Z,97201.34
2023-04-21T18:13:59.182Z,97204.63
2023-04-21T18:16:32.250Z,97205.00
2023-04-21T18:19:06.455Z,97203.69
2023-04-21T18:21:55.217Z,97205.81
2023-04-21T18:24:28.431Z,97211.78
2023-04-21T18:26:58.735Z,97211.03
2023-04-21T18:29:27.695Z,97215.84
2023-04-21T18:31:59.627Z,97216.97
2023-04-21T18:34:29.688Z,97219.13
2023-04-21T18:37:05.775Z,97224.41
2023-04-21T18:39:35.407Z,97239.25
2023-04-21T18:42:05.383Z,97232.94
2023-04-21T18:44:37.251Z,97247.09
2023-04-21T18:47:08.059Z,97246.78
2023-04-21T18:49:59.730Z,97236.84
2023-04-21T18:52:29.655Z,97234.72
2023-04-21T18:55:00.519Z,97231.78
2023-04-21T18:57:30.183Z,97236.44
2023-04-21T19:00:00.347Z,97233.44
2023-04-21T19:02:40.532Z,97228.63
2023-04-21T19:05:10.780Z,97225.97
2023-04-21T19:07:40.608Z,97235.56
2023-04-21T19:10:10.870Z,97231.09
2023-04-21T19:12:41.804Z,97231.91
2023-04-21T19:15:12.031Z,97231.56
2023-04-21T19:17:42.388Z,97231.75
2023-04-21T19:23:15.003Z,97242.66
2023-04-21T19:25:47.518Z,97249.84
2023-04-21T19:28:17.821Z,97242.19
2023-04-21T19:30:51.313Z,97244.00
2023-04-21T19:33:32.766Z,97233.25
2023-04-21T19:36:07.357Z,97233.25
2023-04-21T19:38:43.372Z,97236.22
2023-04-21T19:41:13.927Z,97237.59
2023-04-21T19:44:02.198Z,97240.13
2023-04-21T19:46:32.709Z,97234.97
2023-04-21T19:49:06.430Z,97237.03
2023-04-21T19:51:35.550Z,97232.53
2023-04-21T19:54:11.359Z,97237.78
2023-04-21T19:56:42.859Z,97233.59
2023-04-21T19:59:12.593Z,97231.84
2023-04-21T20:01:45.530Z,97232.94
2023-04-21T20:04:28.641Z,97226.38
2023-04-21T20:07:01.943Z,97226.69
2023-04-21T20:09:39.948Z,97233.78
2023-04-21T20:12:16.977Z,97238.47
2023-04-21T20:14:47.523Z,97244.56
2023-04-21T20:17:18.320Z,97243.50
2023-04-21T20:19:55.173Z,97244.53
2023-04-21T20:22:33.825Z,97242.97
2023-04-21T20:25:15.771Z,97245.38
2023-04-21T20:27:48.546Z,97250.44
2023-04-21T20:30:21.790Z,97243.19
2023-04-21T20:32:55.421Z,97259.16
2023-04-21T20:35:43.541Z,97260.38
2023-04-21T20:38:16.094Z,97264.63
2023-04-21T20:40:56.944Z,97248.03
2023-04-21T20:43:27.575Z,97246.06
2023-04-21T20:45:57.466Z,97244.78
2023-04-21T20:48:26.764Z,97239.31
2023-04-21T20:51:00.077Z,97244.72
2023-04-21T20:53:34.902Z,97242.88
2023-04-21T20:56:09.396Z,97239.34
2023-04-21T20:58:49.167Z,97243.16
2023-04-21T21:01:33.442Z,97243.16
2023-04-21T21:04:05.107Z,97253.59
2023-04-21T21:06:39.205Z,97248.44
2023-04-21T21:09:09.098Z,97241.44
2023-04-21T21:11:41.784Z,97243.22
2023-04-21T21:14:21.603Z,97254.28
2023-04-21T21:16:50.133Z,97248.22
2023-04-21T21:19:24.111Z,97239.66
2023-04-21T21:21:58.720Z,97250.03
2023-04-21T21:24:31.918Z,97247.31
2023-04-21T21:27:03.467Z,97242.91
2023-04-21T21:29:32.274Z,97244.66
2023-04-21T21:32:01.177Z,97247.16
2023-04-21T21:34:32.141Z,97241.75
2023-04-21T21:37:07.487Z,97245.88
2023-04-21T21:39:36.828Z,97252.22
2023-04-21T21:42:05.898Z,97243.38
2023-04-21T21:44:34.471Z,97250.88
2023-04-21T21:47:03.177Z,97244.94
2023-04-21T21:49:31.797Z,97246.97
2023-04-21T21:52:00.733Z,97250.56
2023-04-21T21:54:30.739Z,97237.34
2023-04-21T21:56:59.747Z,97242.97
2023-04-21T21:59:28.343Z,97244.84
2023-04-21T22:01:56.950Z,97238.97
2023-04-21T22:04:25.524Z,97243.19
2023-04-21T22:06:54.125Z,97253.41
2023-04-21T22:09:22.633Z,97255.28
2023-04-21T22:11:56.889Z,97254.69
2023-04-21T22:14:25.416Z,97258.81
2023-04-21T22:16:54.066Z,97258.41
2023-04-21T22:19:22.969Z,97261.41
2023-04-21T22:21:51.406Z,97261.41
2023-04-21T22:24:19.926Z,97252.56
2023-04-21T22:26:49.003Z,97258.78
2023-04-21T22:29:19.089Z,97256.19
2023-04-21T22:31:48.155Z,97258.59
2023-04-21T22:34:18.764Z,97258.72
2023-04-21T22:36:47.387Z,97265.00
2023-04-21T22:39:15.722Z,97266.72
2023-04-21T22:41:44.044Z,97264.72
2023-04-21T22:44:15.464Z,97270.91
2023-04-21T22:46:45.642Z,97270.13
2023-04-21T22:49:14.423Z,97268.44
2023-04-21T22:51:44.446Z,97273.66
2023-04-21T22:54:12.988Z,97278.69
2023-04-21T22:56:42.059Z,97278.00
2023-04-21T22:59:10.460Z,97275.50
2023-04-21T23:01:38.990Z,97274.59
2023-04-21T23:04:08.757Z,97282.38
2023-04-21T23:06:37.169Z,97280.66
2023-04-21T23:09:05.719Z,97279.94
2023-04-21T23:11:33.912Z,97284.38
2023-04-21T23:14:02.243Z,97289.59
2023-04-21T23:16:30.746Z,97281.91
2023-04-21T23:18:59.535Z,97286.06
2023-04-21T23:21:29.297Z,97289.53
2023-04-21T23:23:57.693Z,97286.13
2023-04-21T23:26:26.018Z,97277.50
2023-04-21T23:28:54.454Z,97282.00
2023-04-21T23:31:22.843Z,97283.69
2023-04-21T23:33:51.331Z,97281.16
2023-04-21T23:36:19.633Z,97276.88
2023-04-21T23:38:49.283Z,97279.59
2023-04-21T23:41:17.525Z,97273.41
2023-04-21T23:43:45.889Z,97272.72
2023-04-21T23:46:15.158Z,97278.84
2023-04-21T23:48:43.542Z,97277.16
2023-04-21T23:51:11.954Z,97279.63
2023-04-21T23:53:40.438Z,97272.69
2023-04-21T23:56:10.127Z,97279.78
2023-04-21T23:58:38.390Z,97280.66
